Terminal Aerodrome Forecast
Issued by NWS

Home | Current Version | Previous Version | Text Only | Print | Product List | Glossary On
Versions: 1 2 3 4 5 6 7 8 9 10 11 12 13 14 15 16 17 18 19 20 21 22
000
FTUS43 KDLH 220500
TAFHYR
TAF
KHYR 220533Z 2206/2306 31010G25KT P6SM -SN FEW010 BKN020 OVC035
      TEMPO 2206/2209 2SM -SN
     FM221600 30011G20KT P6SM BKN035 OVC060
     FM222100 33013G20KT P6SM OVC050=

USA.gov is the U.S. government's official web portal to all federal, state and local government web resources and services.